Time;durP1;ratioP1;P1;durP2;ratioP2;P2;SDS_P1;SDS_P2;PMS_P1;PMS_P2;Temp;Humidity;BMP_temperature;BMP_pressure;BME280_temperature;BME280_humidity;BME280_pressure;Samples;Min_cycle;Max_cycle;Signal;HPM_P1;HPM_P2
2024/02/16 00:00:01;;;;;;;59.90;45.58;;;;;;;;;;5011615;28;20030;-47
2024/02/16 00:02:27;;;;;;;66.25;47.65;;;;;;;;;;5010641;28;20128;-47
2024/02/16 00:04:53;;;;;;;68.43;48.03;;;;;;;;;;5008396;28;20065;-46
2024/02/16 00:07:19;;;;;;;65.03;47.53;;;;;;;;;;5007933;28;20033;-48
2024/02/16 00:09:45;;;;;;;61.03;44.97;;;;;;;;;;5008517;28;20038;-48
2024/02/16 00:12:12;;;;;;;61.10;46.60;;;;;;;;;;5008695;28;20056;-47
2024/02/16 00:14:38;;;;;;;60.40;45.47;;;;;;;;;;5009459;28;20049;-47
2024/02/16 00:17:04;;;;;;;63.08;46.72;;;;;;;;;;5011049;28;20447;-51
2024/02/16 00:19:31;;;;;;;63.75;47.08;;;;;;;;;;5007199;28;20444;-50
2024/02/16 00:21:57;;;;;;;69.90;48.28;;;;;;;;;;5011335;28;20108;-47
2024/02/16 00:24:23;;;;;;;61.33;48.10;;;;;;;;;;5011155;28;20076;-48
2024/02/16 00:26:49;;;;;;;70.97;48.53;;;;;;;;;;5011404;28;20387;-46
2024/02/16 00:29:15;;;;;;;66.45;48.03;;;;;;;;;;5011298;28;20105;-49
2024/02/16 00:31:41;;;;;;;65.03;47.85;;;;;;;;;;5010055;28;20057;-46
2024/02/16 00:34:07;;;;;;;63.53;45.63;;;;;;;;;;5009807;28;20113;-47
2024/02/16 00:36:34;;;;;;;66.90;48.50;;;;;;;;;;5011316;28;20461;-46
2024/02/16 00:39:00;;;;;;;66.88;46.45;;;;;;;;;;5008339;28;20462;-48
2024/02/16 00:41:26;;;;;;;66.43;48.47;;;;;;;;;;5008831;28;20022;-50
2024/02/16 00:43:52;;;;;;;61.33;45.38;;;;;;;;;;5012085;28;20057;-46
2024/02/16 00:46:18;;;;;;;63.45;47.50;;;;;;;;;;5012206;28;20033;-49
2024/02/16 00:48:46;;;;;;;61.58;47.00;;;;;;;;;;5011851;28;20037;-48
2024/02/16 00:51:12;;;;;;;63.22;46.42;;;;;;;;;;5012127;28;20037;-46
2024/02/16 00:53:38;;;;;;;65.32;49.35;;;;;;;;;;5011949;28;20030;-48
2024/02/16 00:56:04;;;;;;;67.38;48.97;;;;;;;;;;5011981;28;20514;-47
2024/02/16 00:58:30;;;;;;;70.07;49.03;;;;;;;;;;5011513;28;20036;-50
2024/02/16 01:00:56;;;;;;;71.90;48.67;;;;;;;;;;5009111;28;20041;-49
2024/02/16 01:03:22;;;;;;;65.40;48.10;;;;;;;;;;5009486;28;20109;-49
2024/02/16 01:05:48;;;;;;;68.03;48.20;;;;;;;;;;5011544;28;20476;-46
2024/02/16 01:08:14;;;;;;;68.00;49.35;;;;;;;;;;5011455;28;20097;-48
2024/02/16 01:10:40;;;;;;;67.18;47.20;;;;;;;;;;5011846;28;20101;-48
2024/02/16 01:13:06;;;;;;;68.85;48.20;;;;;;;;;;5011793;28;20026;-46
2024/02/16 01:15:32;;;;;;;68.15;47.30;;;;;;;;;;5011843;28;20042;-47
2024/02/16 01:18:00;;;;;;;61.03;46.60;;;;;;;;;;5007821;28;20041;-46
2024/02/16 01:20:26;;;;;;;67.47;46.03;;;;;;;;;;5011207;28;20033;-46
2024/02/16 01:22:52;;;;;;;66.00;46.58;;;;;;;;;;5011696;28;20061;-48
2024/02/16 01:25:18;;;;;;;67.05;47.03;;;;;;;;;;5011301;28;20448;-47
2024/02/16 01:27:44;;;;;;;67.28;46.42;;;;;;;;;;5011248;28;20030;-47
2024/02/16 01:30:10;;;;;;;62.90;46.85;;;;;;;;;;5011508;28;20109;-47
2024/02/16 01:32:36;;;;;;;64.55;46.70;;;;;;;;;;5009631;28;20030;-48
2024/02/16 01:35:02;;;;;;;61.75;45.42;;;;;;;;;;5010547;28;20034;-47
2024/02/16 01:37:28;;;;;;;69.40;45.08;;;;;;;;;;4998040;28;20721;-48
2024/02/16 01:39:54;;;;;;;60.40;45.75;;;;;;;;;;5006222;28;20034;-48
2024/02/16 01:42:20;;;;;;;65.95;43.92;;;;;;;;;;5008692;28;20530;-48
2024/02/16 01:44:46;;;;;;;64.05;47.05;;;;;;;;;;5010991;28;20034;-48
2024/02/16 01:47:12;;;;;;;69.35;45.90;;;;;;;;;;5011031;28;20042;-47
2024/02/16 01:49:38;;;;;;;62.85;44.47;;;;;;;;;;5010858;28;20041;-47
2024/02/16 01:52:05;;;;;;;64.72;44.30;;;;;;;;;;5010213;28;20384;-47
2024/02/16 01:54:31;;;;;;;62.13;42.63;;;;;;;;;;5009259;28;20068;-48
2024/02/16 01:56:57;;;;;;;67.53;47.70;;;;;;;;;;5010907;28;20549;-50
2024/02/16 01:59:23;;;;;;;71.30;46.80;;;;;;;;;;4997117;28;20037;-48
2024/02/16 02:01:49;;;;;;;63.65;46.25;;;;;;;;;;5009595;28;20083;-52
2024/02/16 02:04:15;;;;;;;62.33;45.33;;;;;;;;;;5010801;28;20453;-47
2024/02/16 02:06:41;;;;;;;61.50;44.85;;;;;;;;;;4996908;28;20345;-52
2024/02/16 02:09:09;;;;;;;60.30;43.10;;;;;;;;;;5010377;28;20041;-52
2024/02/16 02:11:35;;;;;;;62.28;43.60;;;;;;;;;;5008780;28;20029;-47
2024/02/16 02:14:00;;;;;;;63.25;44.25;;;;;;;;;;5010679;28;20029;-49
2024/02/16 02:16:27;;;;;;;63.50;43.47;;;;;;;;;;5010630;28;20384;-49
2024/02/16 02:18:53;;;;;;;59.20;43.97;;;;;;;;;;5010587;28;20092;-48
2024/02/16 02:21:19;;;;;;;59.50;42.95;;;;;;;;;;5010354;28;20042;-47
2024/02/16 02:23:45;;;;;;;60.63;44.17;;;;;;;;;;5009761;28;20061;-53
2024/02/16 02:26:11;;;;;;;63.58;44.25;;;;;;;;;;5011467;28;20562;-48
2024/02/16 02:28:37;;;;;;;61.90;44.97;;;;;;;;;;5006082;28;20045;-48
2024/02/16 02:31:03;;;;;;;65.80;46.53;;;;;;;;;;5024861;28;20052;-48
2024/02/16 02:33:29;;;;;;;58.13;44.47;;;;;;;;;;5012217;28;20030;-48
2024/02/16 02:35:55;;;;;;;62.78;43.35;;;;;;;;;;5010192;28;20033;-51
2024/02/16 02:38:21;;;;;;;58.45;45.17;;;;;;;;;;5010293;28;20039;-48
2024/02/16 02:40:47;;;;;;;60.90;43.67;;;;;;;;;;5010146;28;20108;-48
2024/02/16 02:43:13;;;;;;;58.28;43.70;;;;;;;;;;5010045;28;20484;-48
2024/02/16 02:45:39;;;;;;;63.35;43.75;;;;;;;;;;5009695;28;20033;-49
2024/02/16 02:48:06;;;;;;;61.58;42.95;;;;;;;;;;5024841;28;20025;-47
2024/02/16 02:50:32;;;;;;;62.30;43.47;;;;;;;;;;5009862;28;20030;-48
2024/02/16 02:52:58;;;;;;;61.15;43.15;;;;;;;;;;5009980;28;20033;-50
2024/02/16 02:55:24;;;;;;;66.05;47.63;;;;;;;;;;5010137;28;20029;-49
2024/02/16 02:57:50;;;;;;;58.88;42.65;;;;;;;;;;5009373;28;20025;-50
2024/02/16 03:00:16;;;;;;;61.35;43.15;;;;;;;;;;5005103;28;20084;-48
2024/02/16 03:02:43;;;;;;;56.42;42.53;;;;;;;;;;5007088;28;20023;-48
2024/02/16 03:05:09;;;;;;;62.00;44.97;;;;;;;;;;5009617;28;20037;-49
2024/02/16 03:07:36;;;;;;;66.13;45.67;;;;;;;;;;4996429;28;20069;-48
2024/02/16 03:10:03;;;;;;;60.33;45.42;;;;;;;;;;5009990;28;20042;-48
2024/02/16 03:12:29;;;;;;;63.90;44.90;;;;;;;;;;4996425;28;20328;-48
2024/02/16 03:14:55;;;;;;;65.30;46.05;;;;;;;;;;5010565;28;20080;-48
2024/02/16 03:17:21;;;;;;;68.28;47.58;;;;;;;;;;5010308;28;20065;-48
2024/02/16 03:19:47;;;;;;;63.88;45.90;;;;;;;;;;5008779;28;20061;-48
2024/02/16 03:22:13;;;;;;;66.32;46.13;;;;;;;;;;5000553;28;20487;-49
2024/02/16 03:24:39;;;;;;;62.67;44.05;;;;;;;;;;5002655;28;20029;-48
2024/02/16 03:27:05;;;;;;;64.78;45.75;;;;;;;;;;5009100;28;20415;-49
2024/02/16 03:29:31;;;;;;;60.35;46.65;;;;;;;;;;5008927;28;20542;-51
2024/02/16 03:31:57;;;;;;;64.15;46.42;;;;;;;;;;5009229;28;20101;-48
2024/02/16 03:34:23;;;;;;;65.65;46.15;;;;;;;;;;5009169;28;20068;-48
2024/02/16 03:36:50;;;;;;;65.28;45.67;;;;;;;;;;5008960;28;20038;-49
2024/02/16 03:39:19;;;;;;;59.83;45.08;;;;;;;;;;5009296;28;20029;-50
2024/02/16 03:41:49;;;;;;;64.95;44.30;;;;;;;;;;5008969;28;20022;-48
2024/02/16 03:44:18;;;;;;;63.42;45.90;;;;;;;;;;5009376;28;20026;-49
2024/02/16 03:46:44;;;;;;;67.32;46.30;;;;;;;;;;5009187;28;20026;-49
2024/02/16 03:49:10;;;;;;;67.68;48.40;;;;;;;;;;5009180;28;20022;-50
2024/02/16 03:51:37;;;;;;;62.17;46.47;;;;;;;;;;5009087;28;20096;-52
2024/02/16 04:00:12;;;;;;;63.85;48.97;;;;;;;;;;4995682;28;20036;-49
2024/02/16 04:02:38;;;;;;;67.47;47.83;;;;;;;;;;5008892;28;20022;-50
2024/02/16 04:05:04;;;;;;;63.47;47.00;;;;;;;;;;5009078;28;20036;-48
2024/02/16 04:07:30;;;;;;;67.47;46.22;;;;;;;;;;5008567;28;20112;-48
2024/02/16 04:09:56;;;;;;;67.18;46.67;;;;;;;;;;5009138;28;20168;-48
2024/02/16 04:12:22;;;;;;;63.63;45.85;;;;;;;;;;5008924;28;20036;-48
2024/02/16 04:14:48;;;;;;;65.15;46.00;;;;;;;;;;5009071;28;20046;-49
2024/02/16 04:17:14;;;;;;;67.82;47.97;;;;;;;;;;5012535;28;20022;-49
2024/02/16 04:19:40;;;;;;;61.47;44.65;;;;;;;;;;5013067;28;20440;-51
2024/02/16 04:22:06;;;;;;;61.08;44.30;;;;;;;;;;5012373;28;20026;-49
2024/02/16 04:24:32;;;;;;;60.67;44.13;;;;;;;;;;5012046;28;20044;-51
2024/02/16 04:26:58;;;;;;;62.58;45.60;;;;;;;;;;5013084;28;20085;-48
2024/02/16 04:29:24;;;;;;;65.00;45.10;;;;;;;;;;5012634;28;20040;-48
2024/02/16 04:31:50;;;;;;;63.65;45.63;;;;;;;;;;5013187;28;20034;-48
2024/02/16 04:34:16;;;;;;;60.00;42.60;;;;;;;;;;5012846;28;20496;-49
2024/02/16 04:36:43;;;;;;;60.35;43.65;;;;;;;;;;5013129;28;20061;-48
2024/02/16 04:39:10;;;;;;;63.47;44.88;;;;;;;;;;5012655;28;20029;-47
2024/02/16 04:41:36;;;;;;;65.60;46.03;;;;;;;;;;5013025;28;20104;-48
2024/02/16 04:44:01;;;;;;;61.92;44.35;;;;;;;;;;5012984;28;20116;-47
2024/02/16 04:46:27;;;;;;;62.58;44.65;;;;;;;;;;5012105;28;20531;-50
2024/02/16 04:48:54;;;;;;;61.25;44.92;;;;;;;;;;5012101;28;20262;-48
2024/02/16 04:51:20;;;;;;;62.75;46.03;;;;;;;;;;5012068;28;20025;-48
2024/02/16 04:53:46;;;;;;;55.85;44.45;;;;;;;;;;5011889;28;20073;-47
2024/02/16 04:56:12;;;;;;;65.10;44.92;;;;;;;;;;5012112;28;20054;-48
2024/02/16 04:58:41;;;;;;;61.05;45.45;;;;;;;;;;5012389;28;20034;-48
2024/02/16 05:01:07;;;;;;;57.45;46.25;;;;;;;;;;5012751;28;20096;-48
2024/02/16 05:03:33;;;;;;;62.13;46.08;;;;;;;;;;5012808;28;20423;-48
2024/02/16 05:06:02;;;;;;;60.50;45.70;;;;;;;;;;5012641;28;20542;-48
2024/02/16 05:08:28;;;;;;;60.20;46.28;;;;;;;;;;5012321;28;20058;-49
2024/02/16 05:10:54;;;;;;;63.35;46.42;;;;;;;;;;5012887;28;20058;-47
2024/02/16 05:13:20;;;;;;;56.38;44.83;;;;;;;;;;5012453;28;20472;-49
2024/02/16 05:15:48;;;;;;;60.00;45.13;;;;;;;;;;5012174;28;20053;-48
2024/02/16 05:18:14;;;;;;;65.20;48.42;;;;;;;;;;5012081;28;20026;-50
2024/02/16 05:20:40;;;;;;;60.55;46.72;;;;;;;;;;5011771;28;20187;-48
2024/02/16 05:23:06;;;;;;;63.65;46.63;;;;;;;;;;5006507;28;20049;-49
2024/02/16 05:25:32;;;;;;;59.58;47.13;;;;;;;;;;5014339;28;20443;-49
2024/02/16 05:27:59;;;;;;;62.05;46.63;;;;;;;;;;5011612;28;20026;-48
2024/02/16 05:30:25;;;;;;;65.10;49.50;;;;;;;;;;5014794;28;20465;-47
2024/02/16 05:32:53;;;;;;;65.60;48.55;;;;;;;;;;5014320;28;20053;-48
2024/02/16 05:35:19;;;;;;;66.22;46.75;;;;;;;;;;5011754;28;20049;-51
2024/02/16 05:37:48;;;;;;;67.45;48.80;;;;;;;;;;5014389;28;20053;-50
2024/02/16 05:40:27;;;;;;;66.00;49.03;;;;;;;;;;5000284;28;20023;-50
2024/02/16 05:42:53;;;;;;;68.80;48.85;;;;;;;;;;5013965;28;20345;-48
2024/02/16 05:45:21;;;;;;;62.13;49.20;;;;;;;;;;5013875;28;20064;-47
2024/02/16 05:47:47;;;;;;;66.05;48.10;;;;;;;;;;5013860;28;20029;-48
2024/02/16 05:50:13;;;;;;;63.60;47.88;;;;;;;;;;5013943;28;20049;-49
2024/02/16 05:52:40;;;;;;;68.25;48.03;;;;;;;;;;5001491;28;20073;-47
2024/02/16 05:55:07;;;;;;;61.28;48.22;;;;;;;;;;5013401;28;20036;-48
2024/02/16 05:57:33;;;;;;;64.07;48.25;;;;;;;;;;5009968;28;20380;-51
2024/02/16 05:59:59;;;;;;;70.93;50.97;;;;;;;;;;5010439;28;20033;-47
2024/02/16 06:02:25;;;;;;;62.33;48.33;;;;;;;;;;5006345;28;20026;-47
2024/02/16 06:04:51;;;;;;;62.47;47.78;;;;;;;;;;5007291;28;20038;-48
2024/02/16 06:07:17;;;;;;;64.45;49.30;;;;;;;;;;5012151;28;20078;-47
2024/02/16 06:09:43;;;;;;;65.55;48.63;;;;;;;;;;5017767;28;20085;-49
2024/02/16 06:12:11;;;;;;;69.43;50.63;;;;;;;;;;5013028;28;20092;-46
2024/02/16 06:14:37;;;;;;;70.80;49.72;;;;;;;;;;5009200;28;20039;-47
2024/02/16 06:17:03;;;;;;;69.50;50.00;;;;;;;;;;5006678;28;20112;-47
2024/02/16 06:19:29;;;;;;;68.13;51.15;;;;;;;;;;5008592;28;20088;-47
2024/02/16 06:21:56;;;;;;;64.72;48.63;;;;;;;;;;5002483;28;20420;-48
2024/02/16 06:24:22;;;;;;;67.20;49.92;;;;;;;;;;5011531;28;20392;-61
2024/02/16 06:26:49;;;;;;;70.57;50.65;;;;;;;;;;5013229;28;20053;-61
2024/02/16 06:29:15;;;;;;;63.53;48.30;;;;;;;;;;5012890;28;20026;-61
2024/02/16 06:31:41;;;;;;;68.45;50.25;;;;;;;;;;5013163;28;20026;-62
2024/02/16 06:34:08;;;;;;;63.05;48.70;;;;;;;;;;5012978;28;20041;-65
2024/02/16 06:36:34;;;;;;;65.88;50.22;;;;;;;;;;5012903;28;20025;-61
2024/02/16 06:39:00;;;;;;;66.45;51.05;;;;;;;;;;5012670;28;20018;-61
2024/02/16 06:41:26;;;;;;;66.53;49.92;;;;;;;;;;5012804;28;20105;-61
2024/02/16 06:43:52;;;;;;;63.92;50.88;;;;;;;;;;5012929;28;20041;-61
2024/02/16 06:46:18;;;;;;;68.30;50.42;;;;;;;;;;5013971;28;20042;-60
2024/02/16 06:48:44;;;;;;;68.25;51.05;;;;;;;;;;5007828;28;20030;-61
2024/02/16 06:51:11;;;;;;;72.65;51.13;;;;;;;;;;5012691;28;20038;-61
2024/02/16 06:53:36;;;;;;;72.50;49.97;;;;;;;;;;5012820;28;20113;-60
2024/02/16 06:56:03;;;;;;;68.20;51.03;;;;;;;;;;5012613;28;20061;-60
2024/02/16 06:58:29;;;;;;;68.05;48.22;;;;;;;;;;5012654;28;20029;-60
2024/02/16 07:00:55;;;;;;;64.32;48.25;;;;;;;;;;5012630;28;20502;-61
2024/02/16 07:03:22;;;;;;;65.53;50.60;;;;;;;;;;5012492;28;20041;-60
2024/02/16 07:05:48;;;;;;;73.82;50.70;;;;;;;;;;5012426;28;20042;-61
2024/02/16 07:08:14;;;;;;;71.00;51.15;;;;;;;;;;5012675;28;20380;-61
2024/02/16 07:10:40;;;;;;;71.97;50.38;;;;;;;;;;5012555;28;20101;-61
2024/02/16 07:13:06;;;;;;;69.43;52.08;;;;;;;;;;5018363;28;20026;-61
2024/02/16 07:15:32;;;;;;;71.05;51.28;;;;;;;;;;5002534;28;20029;-60
2024/02/16 07:17:59;;;;;;;70.18;52.47;;;;;;;;;;5009475;28;20025;-61
2024/02/16 07:20:25;;;;;;;68.28;52.28;;;;;;;;;;5006278;28;20451;-60
2024/02/16 07:22:51;;;;;;;67.05;50.90;;;;;;;;;;5001510;28;20054;-60
2024/02/16 07:25:17;;;;;;;71.72;54.80;;;;;;;;;;5018129;28;20043;-60
2024/02/16 07:27:43;;;;;;;71.47;53.72;;;;;;;;;;5006139;28;20022;-61
2024/02/16 07:30:11;;;;;;;71.97;53.15;;;;;;;;;;5012213;28;20030;-61
2024/02/16 07:32:37;;;;;;;73.78;53.85;;;;;;;;;;5012090;28;20029;-61
2024/02/16 07:35:04;;;;;;;68.95;53.05;;;;;;;;;;4997901;28;20030;-61
2024/02/16 07:37:30;;;;;;;73.43;53.35;;;;;;;;;;5011971;28;20022;-61
2024/02/16 07:39:56;;;;;;;72.53;53.25;;;;;;;;;;5011990;28;20104;-60
2024/02/16 07:42:22;;;;;;;66.20;52.85;;;;;;;;;;5011756;28;20042;-60
2024/02/16 07:44:48;;;;;;;74.03;54.78;;;;;;;;;;5010416;28;20490;-60
2024/02/16 07:47:15;;;;;;;70.10;54.80;;;;;;;;;;5025857;28;20403;-60
2024/02/16 07:49:41;;;;;;;72.78;53.17;;;;;;;;;;4997765;28;20026;-60
2024/02/16 07:52:08;;;;;;;75.07;55.50;;;;;;;;;;5011448;28;20499;-62
2024/02/16 07:54:34;;;;;;;72.10;53.35;;;;;;;;;;5001623;28;20109;-61
2024/02/16 07:57:00;;;;;;;71.15;52.35;;;;;;;;;;5008002;28;20109;-60
2024/02/16 07:59:26;;;;;;;70.32;54.67;;;;;;;;;;5002712;28;20030;-61
2024/02/16 08:01:52;;;;;;;72.88;54.47;;;;;;;;;;5022036;28;20026;-60
2024/02/16 08:04:18;;;;;;;74.93;53.00;;;;;;;;;;5004706;28;20070;-61
2024/02/16 08:06:44;;;;;;;73.32;54.42;;;;;;;;;;5005060;28;20085;-60
2024/02/16 08:09:10;;;;;;;72.60;52.05;;;;;;;;;;5011474;28;20065;-60
2024/02/16 08:11:36;;;;;;;68.90;52.38;;;;;;;;;;5011646;28;20030;-60
2024/02/16 08:14:03;;;;;;;74.50;54.70;;;;;;;;;;4997547;28;20030;-60
2024/02/16 08:16:29;;;;;;;71.93;53.50;;;;;;;;;;5003671;28;20048;-61
2024/02/16 08:18:55;;;;;;;70.47;54.28;;;;;;;;;;5011344;28;20029;-61
2024/02/16 08:21:21;;;;;;;75.55;55.67;;;;;;;;;;5011568;28;20398;-60
2024/02/16 08:23:47;;;;;;;72.68;54.45;;;;;;;;;;5006391;28;20149;-60
2024/02/16 08:26:13;;;;;;;71.07;52.88;;;;;;;;;;5011516;28;20555;-60
2024/02/16 08:28:39;;;;;;;71.15;51.22;;;;;;;;;;5011570;28;20053;-61
2024/02/16 08:31:06;;;;;;;71.30;50.78;;;;;;;;;;5011750;28;20463;-61
2024/02/16 08:33:36;;;;;;;64.88;49.50;;;;;;;;;;5011600;28;20022;-61
2024/02/16 08:36:02;;;;;;;63.38;49.53;;;;;;;;;;5011430;28;20026;-62
2024/02/16 08:38:28;;;;;;;61.78;47.67;;;;;;;;;;5011283;28;20034;-61
2024/02/16 08:40:54;;;;;;;65.47;50.00;;;;;;;;;;5010200;28;20029;-61
2024/02/16 08:43:20;;;;;;;65.53;50.13;;;;;;;;;;5011312;28;20096;-62
2024/02/16 08:45:46;;;;;;;68.13;50.72;;;;;;;;;;5011532;28;20403;-61
2024/02/16 08:48:12;;;;;;;67.53;49.67;;;;;;;;;;5011626;28;20092;-61
2024/02/16 08:50:38;;;;;;;61.47;47.80;;;;;;;;;;5011474;28;20037;-62
2024/02/16 08:53:04;;;;;;;67.72;50.80;;;;;;;;;;5011675;28;20375;-61
2024/02/16 08:55:31;;;;;;;66.47;49.92;;;;;;;;;;5011208;28;20030;-61
2024/02/16 08:57:57;;;;;;;64.22;49.40;;;;;;;;;;5011323;28;20026;-61
2024/02/16 09:00:26;;;;;;;71.20;52.22;;;;;;;;;;5011272;28;20105;-61
2024/02/16 09:02:53;;;;;;;66.93;49.22;;;;;;;;;;5013942;28;20022;-61
2024/02/16 09:05:19;;;;;;;71.70;52.53;;;;;;;;;;5014628;28;20038;-61
2024/02/16 09:07:47;;;;;;;72.75;50.47;;;;;;;;;;5013215;28;20030;-61
2024/02/16 09:10:14;;;;;;;64.57;50.22;;;;;;;;;;5013416;28;20053;-61
2024/02/16 09:12:40;;;;;;;71.47;52.95;;;;;;;;;;5014582;28;20215;-61
2024/02/16 09:15:06;;;;;;;71.40;53.20;;;;;;;;;;5014546;28;20053;-61
2024/02/16 09:17:32;;;;;;;70.57;53.58;;;;;;;;;;5014477;28;20022;-61
2024/02/16 09:19:58;;;;;;;67.85;53.33;;;;;;;;;;5014379;28;20053;-60
2024/02/16 09:22:25;;;;;;;68.45;52.33;;;;;;;;;;5014470;28;20068;-60
2024/02/16 09:24:51;;;;;;;66.93;50.03;;;;;;;;;;5013243;28;20076;-60
2024/02/16 09:27:17;;;;;;;73.13;53.20;;;;;;;;;;5004747;28;20029;-61
2024/02/16 09:29:43;;;;;;;66.75;52.10;;;;;;;;;;5014577;28;20029;-60
2024/02/16 09:32:09;;;;;;;60.60;50.05;;;;;;;;;;5014386;28;20022;-60
2024/02/16 09:34:36;;;;;;;70.07;53.20;;;;;;;;;;5005173;28;20048;-60
2024/02/16 09:37:03;;;;;;;70.55;52.05;;;;;;;;;;5013941;28;20045;-60
2024/02/16 09:39:30;;;;;;;70.70;53.80;;;;;;;;;;5012839;28;20018;-60
2024/02/16 09:41:57;;;;;;;65.57;53.53;;;;;;;;;;5013727;28;20045;-60
2024/02/16 09:44:23;;;;;;;71.63;54.13;;;;;;;;;;5014109;28;20070;-60
2024/02/16 09:46:49;;;;;;;70.30;54.53;;;;;;;;;;5013836;28;20087;-60
2024/02/16 09:49:15;;;;;;;71.38;54.47;;;;;;;;;;5013810;28;20022;-60
2024/02/16 09:51:41;;;;;;;72.85;54.88;;;;;;;;;;5014096;28;20025;-62
2024/02/16 09:54:07;;;;;;;77.50;57.17;;;;;;;;;;5027658;28;20022;-60
2024/02/16 09:56:33;;;;;;;69.10;55.58;;;;;;;;;;5013632;28;20025;-61
2024/02/16 09:59:00;;;;;;;68.38;53.60;;;;;;;;;;5012138;28;20047;-61
2024/02/16 10:01:26;;;;;;;72.55;54.88;;;;;;;;;;5013566;28;20105;-61
2024/02/16 10:03:52;;;;;;;73.53;55.58;;;;;;;;;;5028729;28;20452;-61
2024/02/16 10:06:20;;;;;;;72.50;56.75;;;;;;;;;;5011835;28;20042;-61
2024/02/16 10:11:50;;;;;;;75.10;57.10;;;;;;;;;;5013488;28;20025;-60
2024/02/16 10:14:16;;;;;;;71.57;56.67;;;;;;;;;;5012827;28;20026;-60
2024/02/16 10:16:42;;;;;;;69.68;57.33;;;;;;;;;;5013497;28;20037;-60
2024/02/16 10:19:12;;;;;;;74.80;59.22;;;;;;;;;;5013627;28;20042;-60
2024/02/16 10:21:39;;;;;;;72.28;58.13;;;;;;;;;;5013281;28;20026;-60
2024/02/16 10:24:08;;;;;;;78.03;59.55;;;;;;;;;;5013295;28;20108;-61
2024/02/16 10:26:38;;;;;;;73.32;58.95;;;;;;;;;;5007598;28;20040;-61
2024/02/16 10:29:04;;;;;;;72.00;60.38;;;;;;;;;;5013315;28;20072;-61
2024/02/16 10:31:33;;;;;;;75.13;59.30;;;;;;;;;;5013412;28;20050;-61
2024/02/16 10:34:00;;;;;;;75.93;59.28;;;;;;;;;;5011660;28;20029;-61
2024/02/16 10:36:29;;;;;;;78.40;62.72;;;;;;;;;;5012623;28;20034;-61
2024/02/16 10:38:56;;;;;;;75.93;59.47;;;;;;;;;;5011367;28;20014;-61
2024/02/16 10:41:27;;;;;;;73.50;60.42;;;;;;;;;;5003198;28;20056;-63
2024/02/16 10:43:54;;;;;;;74.95;59.70;;;;;;;;;;5013077;28;20399;-63
2024/02/16 10:46:20;;;;;;;79.70;63.65;;;;;;;;;;5012624;28;20429;-63
2024/02/16 10:51:50;;;;;;;78.13;62.28;;;;;;;;;;5009086;28;20109;-63
2024/02/16 10:54:18;;;;;;;75.78;60.72;;;;;;;;;;5012635;28;20022;-63
2024/02/16 10:56:44;;;;;;;77.85;63.28;;;;;;;;;;5017310;28;20060;-63
2024/02/16 10:59:10;;;;;;;77.00;62.00;;;;;;;;;;5009074;28;20060;-63
2024/02/16 11:01:40;;;;;;;79.53;63.30;;;;;;;;;;5012813;28;20052;-63
2024/02/16 11:04:10;;;;;;;80.65;63.85;;;;;;;;;;5011110;28;20025;-64
2024/02/16 11:06:48;;;;;;;82.43;63.22;;;;;;;;;;5012466;28;20042;-63
2024/02/16 11:09:33;;;;;;;84.53;66.68;;;;;;;;;;5010880;28;20030;-64
2024/02/16 11:12:00;;;;;;;82.38;64.18;;;;;;;;;;5012384;28;20037;-64
2024/02/16 11:14:39;;;;;;;82.38;66.22;;;;;;;;;;5012519;28;20061;-63
2024/02/16 11:17:09;;;;;;;80.70;65.35;;;;;;;;;;5012187;28;20026;-63
2024/02/16 11:19:35;;;;;;;84.70;64.22;;;;;;;;;;5010962;28;20421;-64
2024/02/16 11:22:08;;;;;;;81.63;64.85;;;;;;;;;;5009735;28;20076;-64
2024/02/16 11:24:35;;;;;;;82.75;66.53;;;;;;;;;;5004486;28;20430;-64
2024/02/16 11:27:05;;;;;;;80.45;64.80;;;;;;;;;;5004177;28;20499;-64
2024/02/16 11:29:38;;;;;;;81.63;66.65;;;;;;;;;;5001178;28;20437;-64
2024/02/16 11:32:04;;;;;;;79.00;66.40;;;;;;;;;;5011731;28;20095;-64
2024/02/16 11:34:30;;;;;;;88.55;69.32;;;;;;;;;;5002565;28;20022;-64
2024/02/16 11:36:57;;;;;;;82.68;67.50;;;;;;;;;;5010712;28;20053;-64
2024/02/16 11:39:24;;;;;;;83.53;69.18;;;;;;;;;;5003732;28;20149;-64
2024/02/16 11:42:01;;;;;;;82.55;68.65;;;;;;;;;;5007642;28;20038;-64
2024/02/16 11:44:27;;;;;;;82.85;67.70;;;;;;;;;;5003518;28;20017;-64
2024/02/16 11:46:56;;;;;;;82.93;68.95;;;;;;;;;;5012019;28;20116;-64
2024/02/16 11:49:22;;;;;;;82.95;68.82;;;;;;;;;;5011737;28;20030;-64
2024/02/16 11:51:48;;;;;;;83.78;70.47;;;;;;;;;;5012039;28;20041;-64
2024/02/16 11:54:15;;;;;;;83.78;69.97;;;;;;;;;;5012383;28;20026;-64
2024/02/16 11:56:45;;;;;;;82.05;68.63;;;;;;;;;;5011747;28;20494;-64
2024/02/16 11:59:11;;;;;;;88.03;70.05;;;;;;;;;;5009143;28;20024;-65
2024/02/16 12:01:37;;;;;;;83.63;69.05;;;;;;;;;;5011773;28;20475;-64
2024/02/16 12:04:03;;;;;;;89.68;69.35;;;;;;;;;;5002830;28;20120;-64
2024/02/16 12:06:30;;;;;;;83.75;69.68;;;;;;;;;;5004189;28;20038;-64
2024/02/16 12:08:55;;;;;;;84.45;67.00;;;;;;;;;;5011727;28;20026;-65
2024/02/16 12:11:23;;;;;;;86.00;69.63;;;;;;;;;;5011995;28;20360;-64
2024/02/16 12:13:50;;;;;;;86.28;70.90;;;;;;;;;;5011873;28;20113;-64
2024/02/16 12:16:18;;;;;;;82.93;67.63;;;;;;;;;;5011767;28;20028;-63
2024/02/16 12:18:45;;;;;;;81.25;66.85;;;;;;;;;;5000112;28;20037;-63
2024/02/16 12:21:11;;;;;;;84.82;68.97;;;;;;;;;;5009118;28;20112;-64
2024/02/16 12:23:37;;;;;;;85.93;69.20;;;;;;;;;;5011624;28;20105;-63
2024/02/16 12:26:04;;;;;;;85.60;69.90;;;;;;;;;;5011450;28;20070;-64
2024/02/16 12:28:34;;;;;;;84.43;68.82;;;;;;;;;;5011424;28;20029;-63
2024/02/16 12:31:00;;;;;;;82.47;66.63;;;;;;;;;;5011306;28;20030;-63
2024/02/16 12:33:26;;;;;;;84.78;69.07;;;;;;;;;;5011599;28;20458;-63
2024/02/16 12:35:53;;;;;;;82.50;68.72;;;;;;;;;;5011388;28;20037;-63
2024/02/16 12:38:19;;;;;;;80.97;66.68;;;;;;;;;;5011873;28;20372;-63
2024/02/16 12:40:46;;;;;;;85.32;67.05;;;;;;;;;;5007723;28;20026;-63
2024/02/16 12:43:13;;;;;;;82.15;67.07;;;;;;;;;;5014608;28;20514;-63
2024/02/16 12:45:39;;;;;;;83.32;67.68;;;;;;;;;;5014998;28;20121;-63
2024/02/16 12:48:05;;;;;;;85.70;70.90;;;;;;;;;;5014820;28;20104;-63
2024/02/16 12:50:31;;;;;;;86.70;69.85;;;;;;;;;;5014930;28;20038;-63
2024/02/16 12:52:58;;;;;;;85.05;68.25;;;;;;;;;;5015088;28;20026;-63
2024/02/16 12:55:24;;;;;;;82.78;67.90;;;;;;;;;;5009994;28;20030;-62
2024/02/16 12:57:53;;;;;;;85.20;67.57;;;;;;;;;;5009321;28;20092;-63
2024/02/16 13:00:25;;;;;;;85.82;68.93;;;;;;;;;;5014878;28;20020;-63
2024/02/16 13:02:51;;;;;;;85.35;67.85;;;;;;;;;;5001952;28;20061;-63
2024/02/16 13:05:17;;;;;;;85.68;67.43;;;;;;;;;;5014192;28;20440;-63
2024/02/16 13:07:43;;;;;;;85.65;68.88;;;;;;;;;;5011158;28;20058;-63
2024/02/16 13:10:09;;;;;;;82.45;65.93;;;;;;;;;;5012579;28;20030;-63
2024/02/16 13:12:36;;;;;;;82.85;66.40;;;;;;;;;;5014809;28;20439;-63
2024/02/16 13:15:03;;;;;;;84.05;65.50;;;;;;;;;;5014449;28;20036;-63
2024/02/16 13:17:30;;;;;;;86.18;68.97;;;;;;;;;;5014445;28;20391;-63
2024/02/16 13:20:03;;;;;;;82.82;68.03;;;;;;;;;;5014561;28;20361;-62
2024/02/16 13:22:29;;;;;;;87.63;69.67;;;;;;;;;;5014379;28;20030;-63
2024/02/16 13:24:55;;;;;;;82.97;67.18;;;;;;;;;;5014163;28;20277;-62
2024/02/16 13:27:21;;;;;;;83.28;67.38;;;;;;;;;;5014112;28;20030;-62
2024/02/16 13:29:47;;;;;;;88.57;69.45;;;;;;;;;;5014466;28;20072;-64
2024/02/16 13:32:13;;;;;;;83.80;65.80;;;;;;;;;;5014123;28;20451;-63
2024/02/16 13:34:39;;;;;;;82.15;67.40;;;;;;;;;;5008660;28;20026;-63
2024/02/16 13:37:05;;;;;;;85.47;68.60;;;;;;;;;;5014002;28;20105;-63
2024/02/16 13:39:31;;;;;;;84.97;68.80;;;;;;;;;;5013896;28;20026;-63
2024/02/16 13:41:57;;;;;;;87.88;69.18;;;;;;;;;;5014053;28;20045;-63
2024/02/16 13:44:24;;;;;;;83.15;67.32;;;;;;;;;;5014120;28;20384;-63
2024/02/16 13:46:50;;;;;;;90.80;67.85;;;;;;;;;;5010716;28;20034;-63
2024/02/16 13:49:16;;;;;;;90.70;68.75;;;;;;;;;;5002559;28;20082;-63
2024/02/16 13:51:42;;;;;;;89.30;68.82;;;;;;;;;;5012031;28;20456;-63
2024/02/16 13:54:08;;;;;;;86.47;68.63;;;;;;;;;;5005856;28;20105;-63
2024/02/16 13:56:38;;;;;;;88.45;70.95;;;;;;;;;;5013692;28;20411;-63
2024/02/16 13:59:04;;;;;;;88.60;70.45;;;;;;;;;;5009116;28;20379;-63
2024/02/16 14:01:31;;;;;;;92.65;71.18;;;;;;;;;;5013546;28;20433;-63
2024/02/16 14:03:57;;;;;;;89.95;68.85;;;;;;;;;;5013907;28;20433;-63
2024/02/16 14:06:23;;;;;;;90.43;70.15;;;;;;;;;;5013322;28;20088;-63
2024/02/16 14:09:08;;;;;;;94.28;70.20;;;;;;;;;;5013556;28;20061;-63
2024/02/16 14:11:34;;;;;;;87.38;70.10;;;;;;;;;;5013433;28;20033;-63
2024/02/16 14:14:00;;;;;;;90.30;69.50;;;;;;;;;;5012090;28;20026;-63
2024/02/16 14:16:26;;;;;;;89.13;71.13;;;;;;;;;;5013664;28;20037;-63
2024/02/16 14:18:52;;;;;;;93.05;71.60;;;;;;;;;;5013571;28;20029;-63
2024/02/16 14:21:18;;;;;;;94.13;73.43;;;;;;;;;;5013408;28;20037;-63
2024/02/16 14:23:44;;;;;;;90.45;72.10;;;;;;;;;;5013289;28;20029;-63